Hugh R. Sharp — WDC9608 — position and weather

sailwx.info

Track history (hours):
 
Tides and Currents Weather Stations Pressure Air Temp Water Temp Dewpoint Dewpoint Depression Visibility Wind Speed Wind Dir Waves Ship Positions

Oceanographic research ship Hugh R. Sharp (USA)

Ship's website: http://www.ceoe.udel.edu/marine/rvSharp.shtml

Detailed information on ship capabilities available from University of Delaware's Ocean Information Center.

Owner: Warrior & yGulf Navigation Compan, Chickasaw, AL. More information available from US FCC via Universal Licensing System and Coast Guard Vessel Documentation Center.

Last reported at 2019-Jun-16 00:30 UTC. Time now 2019-Jun-16 00:44 UTC.
Position N 39°28' W 074°14'.

Length 48 m; draft 4 m.

Type: Other ship. MMSI: 367063060.

Date/timePositionNaut miles runAvg speedWind from/ knotsBaromVisibWave heightAir tempDewpointWater temp
2019-Jun-16 00:30N 39°28' W 074°14'4 7.2
2019-Jun-16 00:00N 39°31' W 074°12'4 7.4
2019-Jun-15 23:30N 39°35' W 074°10'4 7.2
2019-Jun-15 23:00N 39°38' W 074°08'4 7.3
2019-Jun-15 22:30N 39°41' W 074°05'4 7.1
2019-Jun-15 22:01N 39°44' W 074°04'4 7.2
2019-Jun-15 21:31N 39°48' W 074°03'4 7.5
2019-Jun-15 21:00N 39°52' W 074°02'4 7.6
2019-Jun-15 20:30N 39°55' W 074°01'4 8.0
2019-Jun-15 20:00N 39°59' W 074°01'4 7.8
2019-Jun-15 19:29N 40°03' W 074°00'22 7.5
2019-Jun-15 16:33N 40°21' W 073°44'1 8.8
2019-Jun-15 16:29N 40°22' W 073°43'4 8.7
2019-Jun-15 15:59N 40°23' W 073°38'10 8.9
2019-Jun-15 14:52N 40°27' W 073°26'6 9.0
2019-Jun-15 14:10N 40°30' W 073°18'1 9.1
2019-Jun-15 14:00N 40°31' W 073°17'19 9.0
2019-Jun-15 11:56N 40°39' W 072°55'40 9.1
2019-Jun-15 07:36N 40°54' W 072°07'1 9.6
2019-Jun-15 07:29N 40°55' W 072°05'5 9.5
2019-Jun-15 07:00N 40°56' W 071°60'5 9.5
2019-Jun-15 06:31N 40°58' W 071°54'510.0
2019-Jun-15 06:00N 41°00' W 071°48'8 9.4
2019-Jun-15 05:07N 41°03' W 071°37'5 9.1
2019-Jun-15 04:34N 41°05' W 071°31'1 9.3
2019-Jun-15 04:27N 41°05' W 071°30'  
2019-Jun-08 07:08N 41°34' W 068°29'5 7.5
2019-Jun-08 06:31N 41°29' W 068°29'0 3.1
2019-Jun-08 06:29N 41°29' W 068°29'2 3.7
2019-Jun-08 06:00N 41°28' W 068°28'5 8.7
2019-Jun-08 05:23N 41°23' W 068°26'2 3.1
2019-Jun-08 04:48N 41°24' W 068°26'2 3.6
2019-Jun-08 04:12N 41°22' W 068°27'1 2.7
2019-Jun-08 04:00N 41°23' W 068°27'1 1.6
2019-Jun-08 03:28N 41°22' W 068°27'  
Track history (hours):
 
Tides and Currents Weather Stations Pressure Air Temp Water Temp Dewpoint Dewpoint Depression Visibility Wind Speed Wind Dir Waves Ship Positions

Oceanographic research ship Hugh R. Sharp (USA)

Ship's website: http://www.ceoe.udel.edu/marine/rvSharp.shtml

Detailed information on ship capabilities available from University of Delaware's Ocean Information Center.

Owner: Warrior & yGulf Navigation Compan, Chickasaw, AL. More information available from US FCC via Universal Licensing System and Coast Guard Vessel Documentation Center.

Last reported at 2019-Jun-16 00:30 UTC. Time now 2019-Jun-16 00:44 UTC.
Position N 39°28' W 074°14'.

Length 48 m; draft 4 m.

Type: Other ship. MMSI: 367063060.

Date/timePositionNaut miles runAvg speedWind from/ knotsBaromVisibWave heightAir tempDewpointWater temp
2019-Jun-16 00:30N 39°28' W 074°14'4 7.2
2019-Jun-16 00:00N 39°31' W 074°12'4 7.4
2019-Jun-15 23:30N 39°35' W 074°10'4 7.2
2019-Jun-15 23:00N 39°38' W 074°08'4 7.3
2019-Jun-15 22:30N 39°41' W 074°05'4 7.1
2019-Jun-15 22:01N 39°44' W 074°04'4 7.2
2019-Jun-15 21:31N 39°48' W 074°03'4 7.5
2019-Jun-15 21:00N 39°52' W 074°02'4 7.6
2019-Jun-15 20:30N 39°55' W 074°01'4 8.0
2019-Jun-15 20:00N 39°59' W 074°01'4 7.8
2019-Jun-15 19:29N 40°03' W 074°00'22 7.5
2019-Jun-15 16:33N 40°21' W 073°44'1 8.8
2019-Jun-15 16:29N 40°22' W 073°43'4 8.7
2019-Jun-15 15:59N 40°23' W 073°38'10 8.9
2019-Jun-15 14:52N 40°27' W 073°26'6 9.0
2019-Jun-15 14:10N 40°30' W 073°18'1 9.1
2019-Jun-15 14:00N 40°31' W 073°17'19 9.0
2019-Jun-15 11:56N 40°39' W 072°55'40 9.1
2019-Jun-15 07:36N 40°54' W 072°07'1 9.6
2019-Jun-15 07:29N 40°55' W 072°05'5 9.5
2019-Jun-15 07:00N 40°56' W 071°60'5 9.5
2019-Jun-15 06:31N 40°58' W 071°54'510.0
2019-Jun-15 06:00N 41°00' W 071°48'8 9.4
2019-Jun-15 05:07N 41°03' W 071°37'5 9.1
2019-Jun-15 04:34N 41°05' W 071°31'1 9.3
2019-Jun-15 04:27N 41°05' W 071°30'  
2019-Jun-08 07:08N 41°34' W 068°29'5 7.5
2019-Jun-08 06:31N 41°29' W 068°29'0 3.1
2019-Jun-08 06:29N 41°29' W 068°29'2 3.7
2019-Jun-08 06:00N 41°28' W 068°28'5 8.7
2019-Jun-08 05:23N 41°23' W 068°26'2 3.1
2019-Jun-08 04:48N 41°24' W 068°26'2 3.6
2019-Jun-08 04:12N 41°22' W 068°27'1 2.7
2019-Jun-08 04:00N 41°23' W 068°27'1 1.6
2019-Jun-08 03:28N 41°22' W 068°27'  

Dump ship's entire track history